Andoain, Spain
Current Conditions -  °F | °C
As of 3:30 PM on Sunday 23 Nov 2014 (Local Time) from LESO Reporting Station
Clear Clear  
Wind Chill: 77°   Ceiling: Unl
Heat Index: 78°   Visibility: 6mi
Dew Point: 45°   Wind: 14mph
Humidity: 32%   Direction: 180°S
Pressure: 29.85"   Gusts: NA
Location:  43.22°N, 2.03°W
Report Text: LESO 231430Z 18012KT 140V220 CAVOK 25/07 Q1011
Loading
Personal Weather Stations






























Interactive Weather Map New forecast layout! Learn more

10-Day Weather Forecast

Advertisements
Track Severe Weather on mobile